createdAt,value
2022-09-27T00:01:15.024Z,94422.31
2022-09-27T00:03:43.603Z,94422.38
2022-09-27T00:06:15.722Z,94425.03
2022-09-27T00:08:44.606Z,94429.28
2022-09-27T00:11:21.334Z,94422.72
2022-09-27T00:13:49.175Z,94418.03
2022-09-27T00:16:17.126Z,94417.66
2022-09-27T00:18:45.179Z,94417.28
2022-09-27T00:21:14.900Z,94419.25
2022-09-27T00:23:42.981Z,94416.59
2022-09-27T00:26:13.345Z,94431.31
2022-09-27T00:28:43.334Z,94442.53
2022-09-27T00:31:22.777Z,94437.41
2022-09-27T00:33:53.732Z,94452.50
2022-09-27T00:36:22.428Z,94447.84
2022-09-27T00:38:51.034Z,94428.47
2022-09-27T00:41:20.877Z,94426.91
2022-09-27T00:43:52.708Z,94416.41
2022-09-27T00:46:27.659Z,94411.78
2022-09-27T00:49:05.329Z,94417.56
2022-09-27T00:51:37.474Z,94410.16
2022-09-27T00:54:07.804Z,94394.22
2022-09-27T00:56:37.513Z,94399.56
2022-09-27T00:59:11.915Z,94394.97
2022-09-27T01:01:40.514Z,94396.44
2022-09-27T01:04:10.281Z,94384.72
2022-09-27T01:06:38.682Z,94397.53
2022-09-27T01:09:08.075Z,94397.06
2022-09-27T01:11:45.956Z,94395.53
2022-09-27T01:14:48.234Z,94411.06
2022-09-27T01:17:33.757Z,94399.41
2022-09-27T01:20:22.065Z,94398.25
2022-09-27T01:23:04.675Z,94386.66
2022-09-27T01:25:54.238Z,94384.97
2022-09-27T01:28:28.347Z,94375.31
2022-09-27T01:31:05.269Z,94387.72
2022-09-27T01:33:48.765Z,94392.34
2022-09-27T01:36:23.613Z,94379.59
2022-09-27T01:39:07.698Z,94379.66
2022-09-27T01:41:40.557Z,94377.72
2022-09-27T01:44:15.299Z,94383.19
2022-09-27T01:46:49.323Z,94385.50
2022-09-27T01:49:19.431Z,94381.56
2022-09-27T01:51:54.954Z,94371.41
2022-09-27T01:54:28.978Z,94369.88
2022-09-27T01:57:00.773Z,94383.88
2022-09-27T01:59:33.459Z,94385.50
2022-09-27T02:02:09.369Z,94393.25
2022-09-27T02:04:41.278Z,94380.78
2022-09-27T02:07:15.042Z,94380.78
2022-09-27T02:09:49.862Z,94366.09
2022-09-27T02:12:33.921Z,94369.19
2022-09-27T02:15:06.934Z,94367.22
2022-09-27T02:17:45.727Z,94355.63
2022-09-27T02:20:18.727Z,94341.69
2022-09-27T02:22:50.390Z,94330.84
2022-09-27T02:25:24.323Z,94341.28
2022-09-27T02:28:00.704Z,94332.69
2022-09-27T02:30:28.748Z,94320.66
2022-09-27T02:32:57.962Z,94312.13
2022-09-27T02:35:30.748Z,94305.53
2022-09-27T02:37:59.330Z,94303.97
2022-09-27T02:40:32.941Z,94303.97
2022-09-27T02:43:01.636Z,94291.19
2022-09-27T02:45:38.126Z,94295.44
2022-09-27T02:48:20.681Z,94300.13
2022-09-27T02:51:22.780Z,94314.88
2022-09-27T02:54:04.638Z,94306.72
2022-09-27T02:56:41.520Z,94312.16
2022-09-27T02:59:18.625Z,94310.19
2022-09-27T03:01:59.506Z,94314.88
2022-09-27T03:04:35.681Z,94315.69
2022-09-27T03:07:04.247Z,94295.91
2022-09-27T03:09:42.985Z,94273.34
2022-09-27T03:12:11.160Z,94257.09
2022-09-27T03:14:38.998Z,94262.50
2022-09-27T03:17:07.014Z,94267.53
2022-09-27T03:19:36.256Z,94258.25
2022-09-27T03:22:04.144Z,94245.09
2022-09-27T03:24:32.194Z,94248.25
2022-09-27T03:27:00.061Z,94240.47
2022-09-27T03:29:27.953Z,94241.25
2022-09-27T03:31:55.842Z,94239.72
2022-09-27T03:34:23.708Z,94232.75
2022-09-27T03:36:53.134Z,94228.88
2022-09-27T03:39:20.978Z,94233.16
2022-09-27T03:41:48.860Z,94235.88
2022-09-27T03:44:16.724Z,94242.88
2022-09-27T03:46:44.562Z,94250.56
2022-09-27T03:49:12.425Z,94247.88
2022-09-27T03:51:40.279Z,94252.88
2022-09-27T03:54:09.588Z,94241.28
2022-09-27T03:56:37.425Z,94241.72
2022-09-27T03:59:05.452Z,94248.31
2022-09-27T04:01:35.369Z,94240.59
2022-09-27T04:04:07.560Z,94241.41
2022-09-27T04:06:38.153Z,94243.69
2022-09-27T04:09:06.027Z,94253.00
2022-09-27T04:11:35.242Z,94246.81
2022-09-27T04:14:05.169Z,94248.72
2022-09-27T04:16:33.870Z,94242.91
2022-09-27T04:19:01.859Z,94230.91
2022-09-27T04:21:29.859Z,94227.47
2022-09-27T04:23:57.810Z,94227.50
2022-09-27T04:26:25.901Z,94228.66
2022-09-27T04:28:55.151Z,94232.94
2022-09-27T04:31:23.182Z,94236.03
2022-09-27T04:33:51.297Z,94238.75
2022-09-27T04:36:26.540Z,94244.56
2022-09-27T04:38:55.314Z,94246.88
2022-09-27T04:41:24.435Z,94249.59
2022-09-27T04:43:56.719Z,94254.63
2022-09-27T04:46:31.579Z,94241.47
2022-09-27T04:49:00.283Z,94232.56
2022-09-27T04:51:28.860Z,94250.84
2022-09-27T04:53:57.374Z,94260.53
2022-09-27T04:56:25.490Z,94250.81
2022-09-27T04:58:53.930Z,94253.91
2022-09-27T05:01:22.902Z,94267.84
2022-09-27T05:03:52.237Z,94261.66
2022-09-27T05:06:20.109Z,94252.38
2022-09-27T05:08:49.106Z,94251.22
2022-09-27T05:11:16.943Z,94252.41
2022-09-27T05:13:44.816Z,94248.50
2022-09-27T05:16:12.762Z,94239.59
2022-09-27T05:18:40.654Z,94238.41
2022-09-27T05:21:09.970Z,94221.34
2022-09-27T05:23:38.040Z,94222.13
2022-09-27T05:26:06.277Z,94222.91
2022-09-27T05:28:35.147Z,94227.16
2022-09-27T05:31:03.271Z,94224.41
2022-09-27T05:33:31.257Z,94222.78
2022-09-27T05:35:59.360Z,94215.03
2022-09-27T05:38:30.046Z,94227.44
2022-09-27T05:40:57.974Z,94234.41
2022-09-27T05:43:26.249Z,94245.22
2022-09-27T05:45:54.188Z,94247.56
2022-09-27T05:48:22.238Z,94245.22
2022-09-27T05:50:50.107Z,94232.84
2022-09-27T05:53:18.736Z,94234.38
2022-09-27T05:55:48.758Z,94233.56
2022-09-27T05:58:16.930Z,94222.28
2022-09-27T06:00:45.328Z,94235.88
2022-09-27T06:03:14.961Z,94237.44
2022-09-27T06:05:42.847Z,94232.41
2022-09-27T06:08:12.836Z,94248.72
2022-09-27T06:10:41.993Z,94249.50
2022-09-27T06:13:13.287Z,94241.41
2022-09-27T06:15:42.491Z,94236.78
2022-09-27T06:18:12.446Z,94230.22
2022-09-27T06:20:41.634Z,94250.81
2022-09-27T06:23:11.693Z,94250.03
2022-09-27T06:25:40.384Z,94243.09
2022-09-27T06:28:09.392Z,94239.25
2022-09-27T06:30:40.555Z,94229.19
2022-09-27T06:33:10.419Z,94221.84
2022-09-27T06:35:38.346Z,94224.56
2022-09-27T06:38:09.100Z,94243.13
2022-09-27T06:40:37.164Z,94245.09
2022-09-27T06:43:06.114Z,94230.75
2022-09-27T06:45:35.263Z,94224.16
2022-09-27T06:48:05.517Z,94224.13
2022-09-27T06:50:35.493Z,94234.59
2022-09-27T06:53:03.590Z,94233.84
2022-09-27T06:55:31.509Z,94233.09
2022-09-27T06:58:18.137Z,94233.81
2022-09-27T07:00:47.815Z,94227.59
2022-09-27T07:03:17.308Z,94221.38
2022-09-27T07:05:55.816Z,94222.94
2022-09-27T07:08:25.114Z,94247.81
2022-09-27T07:10:53.176Z,94252.47
2022-09-27T07:13:21.027Z,94238.53
2022-09-27T07:15:49.552Z,94232.72
2022-09-27T07:18:18.995Z,94252.94
2022-09-27T07:20:46.860Z,94239.34
2022-09-27T07:23:15.990Z,94240.13
2022-09-27T07:25:44.269Z,94242.84
2022-09-27T07:28:21.574Z,94242.84
2022-09-27T07:30:50.824Z,94249.84
2022-09-27T07:33:20.081Z,94248.69
2022-09-27T07:35:47.987Z,94247.56
2022-09-27T07:38:16.656Z,94248.34
2022-09-27T07:40:45.090Z,94257.28
2022-09-27T07:43:13.308Z,94244.88
2022-09-27T07:45:41.467Z,94251.88
2022-09-27T07:48:11.690Z,94260.41
2022-09-27T07:50:41.072Z,94258.84
2022-09-27T07:53:12.787Z,94256.53
2022-09-27T07:55:41.168Z,94262.69
2022-09-27T07:58:11.396Z,94266.13
2022-09-27T08:00:41.033Z,94249.47
2022-09-27T08:03:11.678Z,94261.13
2022-09-27T08:05:40.936Z,94243.28
2022-09-27T08:08:08.843Z,94251.41
2022-09-27T08:10:36.895Z,94246.75
2022-09-27T08:13:06.068Z,94233.94
2022-09-27T08:15:36.080Z,94246.75
2022-09-27T08:18:04.125Z,94243.72
2022-09-27T08:20:32.026Z,94241.38
2022-09-27T08:23:04.254Z,94226.63
2022-09-27T08:25:32.380Z,94230.09
2022-09-27T08:28:01.624Z,94230.88
2022-09-27T08:30:31.319Z,94238.66
2022-09-27T08:33:00.133Z,94237.88
2022-09-27T08:35:29.331Z,94227.38
2022-09-27T08:37:59.057Z,94224.66
2022-09-27T08:40:37.119Z,94220.75
2022-09-27T08:43:11.059Z,94199.41
2022-09-27T08:45:43.148Z,94203.25
2022-09-27T08:48:11.638Z,94209.84
2022-09-27T08:50:43.694Z,94197.03
2022-09-27T08:53:21.530Z,94204.44
2022-09-27T08:55:53.852Z,94205.63
2022-09-27T08:58:26.963Z,94204.44
2022-09-27T09:00:56.972Z,94217.66
2022-09-27T09:03:28.217Z,94205.22
2022-09-27T09:06:15.673Z,94201.28
2022-09-27T09:08:57.945Z,94195.81
2022-09-27T09:11:57.733Z,94199.72
2022-09-27T09:14:48.133Z,94202.75
2022-09-27T09:17:30.210Z,94201.56
2022-09-27T09:20:17.519Z,94195.59
2022-09-27T09:22:59.880Z,94203.31
2022-09-27T09:25:36.395Z,94205.66
2022-09-27T09:28:20.428Z,94195.91
2022-09-27T09:31:01.364Z,94200.25
2022-09-27T09:33:32.541Z,94198.75
2022-09-27T09:36:04.058Z,94183.97
2022-09-27T09:38:39.225Z,94180.06
2022-09-27T09:41:11.344Z,94176.91
2022-09-27T09:43:46.383Z,94190.41
2022-09-27T09:46:20.258Z,94181.25
2022-09-27T09:48:53.083Z,94180.78
2022-09-27T09:51:24.974Z,94182.59
2022-09-27T09:53:58.428Z,94188.13
2022-09-27T09:56:30.630Z,94184.66
2022-09-27T09:59:03.380Z,94189.72
2022-09-27T10:01:37.194Z,94176.91
2022-09-27T10:04:05.385Z,94189.38
2022-09-27T10:06:33.614Z,94188.22
2022-09-27T10:09:01.667Z,94194.81
2022-09-27T10:11:40.523Z,94177.25
2022-09-27T10:14:13.453Z,94183.84
2022-09-27T10:16:45.668Z,94185.06
2022-09-27T10:19:17.281Z,94186.16
2022-09-27T10:21:50.157Z,94174.00
2022-09-27T10:24:20.522Z,94156.81
2022-09-27T10:26:51.633Z,94143.25
2022-09-27T10:29:26.460Z,94149.56
2022-09-27T10:31:54.642Z,94152.81
2022-09-27T10:34:28.141Z,94159.44
2022-09-27T10:37:20.495Z,94149.66
2022-09-27T10:39:50.949Z,94146.81
2022-09-27T10:42:34.829Z,94149.47
2022-09-27T10:45:26.831Z,94143.78
2022-09-27T10:47:54.899Z,94151.41
2022-09-27T10:50:48.989Z,94137.34
2022-09-27T10:53:16.787Z,94149.59
2022-09-27T10:55:48.929Z,94142.06
2022-09-27T10:58:20.400Z,94141.03
2022-09-27T11:00:58.135Z,94124.50
2022-09-27T11:03:29.037Z,94109.56
2022-09-27T11:05:59.313Z,94112.53
2022-09-27T11:08:32.185Z,94119.25
2022-09-27T11:11:08.027Z,94119.41
2022-09-27T11:13:36.204Z,94108.66
2022-09-27T11:16:32.204Z,94116.38
2022-09-27T11:19:15.672Z,94114.72
2022-09-27T11:21:52.281Z,94100.66
2022-09-27T11:24:39.997Z,94092.31
2022-09-27T11:27:20.398Z,94083.22
2022-09-27T11:30:02.964Z,94078.66
2022-09-27T11:32:46.788Z,94079.28
2022-09-27T11:35:34.408Z,94091.56
2022-09-27T11:38:24.812Z,94087.78
2022-09-27T11:41:19.753Z,94071.97
2022-09-27T11:44:17.858Z,94063.50
2022-09-27T11:46:51.490Z,94069.84
2022-09-27T11:49:54.552Z,94042.63
2022-09-27T11:52:37.797Z,94038.94
2022-09-27T11:55:21.144Z,94038.53
2022-09-27T11:57:57.308Z,94039.16
2022-09-27T12:00:26.253Z,94037.44
2022-09-27T12:03:36.685Z,94029.19
2022-09-27T12:06:12.663Z,94028.16
2022-09-27T12:08:54.048Z,94025.78
2022-09-27T12:11:29.033Z,94023.00
2022-09-27T12:13:59.875Z,94012.72
2022-09-27T12:16:29.002Z,94012.66
2022-09-27T12:18:57.468Z,94019.56
2022-09-27T12:21:28.227Z,94002.81
2022-09-27T12:23:58.873Z,93978.16
2022-09-27T12:26:29.536Z,94008.59
2022-09-27T12:29:00.744Z,93989.44
2022-09-27T12:31:35.843Z,93971.47
2022-09-27T12:34:19.336Z,93966.41
2022-09-27T12:36:54.577Z,93934.78
2022-09-27T12:39:26.856Z,93946.00
2022-09-27T12:42:02.229Z,93923.47
2022-09-27T12:44:39.078Z,93946.84
2022-09-27T12:47:16.469Z,93938.69
2022-09-27T12:50:01.010Z,93939.03
2022-09-27T12:52:34.552Z,93907.75
2022-09-27T12:55:30.083Z,93940.06
2022-09-27T12:58:17.947Z,93921.34
2022-09-27T13:00:56.000Z,93920.50
2022-09-27T13:04:02.258Z,93938.13
2022-09-27T13:06:47.399Z,93950.31
2022-09-27T13:09:43.469Z,93953.25
2022-09-27T13:12:14.477Z,93922.41
2022-09-27T13:14:49.526Z,93900.06
2022-09-27T13:17:50.061Z,93934.84
2022-09-27T13:20:44.371Z,93915.47
2022-09-27T13:23:57.994Z,93968.66
2022-09-27T13:26:47.091Z,93965.31
2022-09-27T13:29:33.951Z,93953.88
2022-09-27T13:32:23.642Z,93912.97
2022-09-27T13:34:53.861Z,93914.88
2022-09-27T13:37:51.666Z,93903.81
2022-09-27T13:40:29.078Z,93797.03
2022-09-27T13:43:26.988Z,93918.63
2022-09-27T13:45:57.838Z,93886.00
2022-09-27T13:48:31.852Z,93916.94
2022-09-27T13:51:04.428Z,93928.19
2022-09-27T13:53:36.589Z,93946.41
2022-09-27T13:56:05.721Z,93945.97
2022-09-27T13:58:55.908Z,93936.19
2022-09-27T14:01:29.721Z,93901.38
2022-09-27T14:04:03.779Z,93930.75
2022-09-27T14:06:36.105Z,93931.38
2022-09-27T14:09:07.890Z,93928.09
2022-09-27T14:11:40.136Z,93914.88
2022-09-27T14:14:18.667Z,93931.63
2022-09-27T14:16:47.562Z,93904.41
2022-09-27T14:19:18.392Z,93919.63
2022-09-27T14:21:47.631Z,93933.81
2022-09-27T14:24:29.784Z,93919.75
2022-09-27T14:27:17.456Z,93917.97
2022-09-27T14:29:49.725Z,93916.00
2022-09-27T14:32:19.713Z,93921.47
2022-09-27T14:34:47.755Z,93868.97
2022-09-27T14:37:24.426Z,93897.19
2022-09-27T14:40:00.467Z,93919.06
2022-09-27T14:42:32.471Z,93927.03
2022-09-27T14:45:23.732Z,93921.72
2022-09-27T14:47:52.733Z,93906.81
2022-09-27T14:50:23.838Z,93910.41
2022-09-27T14:52:55.533Z,93915.19
2022-09-27T14:55:25.114Z,93917.34
2022-09-27T14:57:54.811Z,93916.69
2022-09-27T15:00:26.831Z,93935.88
2022-09-27T15:02:59.030Z,93933.25
2022-09-27T15:05:29.316Z,93881.53
2022-09-27T15:08:01.405Z,93896.84
2022-09-27T15:10:32.363Z,93883.78
2022-09-27T15:13:03.477Z,93938.38
2022-09-27T15:15:36.034Z,94001.72
2022-09-27T15:18:05.335Z,94033.88
2022-09-27T15:20:35.676Z,94078.06
2022-09-27T15:23:04.820Z,94023.22
2022-09-27T15:25:35.912Z,94013.56
2022-09-27T15:28:06.870Z,94045.00
2022-09-27T15:30:38.434Z,94094.59
2022-09-27T15:33:08.730Z,94074.44
2022-09-27T15:35:37.808Z,94086.03
